Arcata, CA

3:50 AM PDT on March 29, 2015 (GMT -0700)
APRSWXNET Arcata CA US | | Change Station
CLOSE
Current Station
Personal Weather Station
Location: Arcata, CA
Elevation: 183 ft
Nearby Weather Stations

Elev 183 ft 40.88 °N, 124.08 °W | Updated 35 minutes ago

Overcast
Overcast
49 °F
Feels Like 49 °F
N
0
Wind Variable Wind from SW
Gusts 4.0 mph

Today
High -- | Low -- °F
--% Chance of Precip.
Yesterday
High -- | Low -- °F
Precip. -- in
7:04 AM 7:37 PM
Waxing Gibbous, 70% visible
Pressure 30.31 in
Visibility 9.0 miles
Clouds Overcast 1100 ft
Windchill 49 °F
Dew Point 48 °F
Humidity 95%
Rainfall in
Snow Depth Not available.
UV 0 out of 12
Pollen 8.90 out of 12
Air Quality Not available.
Flu Activity Not available.
METAR KACV 290953Z AUTO 31011G16KT 9SM OVC011 11/09 A3029 RMK AO2 SLP262 T01060094

More Conditions Fewer Conditions

Pressure 30.31 in
Visibility 9.0 miles
Clouds Overcast 1100 ft
Windchill 49 °F
Dew Point 48 °F
Humidity 95%
Rainfall in
Snow Depth Not available.
UV 0 out of 12
Pollen 8.90 out of 12
Air Quality Not available.
Flu Activity Not available.
METAR KACV 290953Z AUTO 31011G16KT 9SM OVC011 11/09 A3029 RMK AO2 SLP262 T01060094

More Conditions Fewer Conditions

10-Day Weather Forecast

Almanac

Astronomy

Mar. 29, 2015 Rise Set
Actual Time
Civil Twilight
Nautical Twilight
Astronomical Twilight
Moon
Length of Visible Light
Length of Day
Tomorrow will be .
, % of the Moon is Illuminated

Today's Extremes

State Highs State Lows

Community

WunderPhotos

Upload Photos

1,809,214 photos uploaded!

WunderBlogs® & News

Nearby

Air Quality

  Air Quality AQ Index Pollutant
Not available.

Snow Depth

Station Depth Elevation

Earthquake Activity

City Distance Mag. Time & Date
Minimum magnitude displayed is 2.5.

Coastal Water Temperatures

Place Temperature

Stations

Nearby Weather Stations

Station Location Temp. Windchill Dew Point Humidity Wind Precip. Elev Updated Type